sensor_id;sensor_type;location;lat;lon;timestamp;P1;durP1;ratioP1;P2;durP2;ratioP2
41623;SDS011;27319;50.306;18.926;2022-12-10T00:00:24;72.25;;;34.05;;
41623;SDS011;27319;50.306;18.926;2022-12-10T00:03:45;75.13;;;34.40;;
41623;SDS011;27319;50.306;18.926;2022-12-10T00:06:46;46.22;;;25.17;;
41623;SDS011;27319;50.306;18.926;2022-12-10T00:09:48;74.72;;;35.72;;
41623;SDS011;27319;50.306;18.926;2022-12-10T00:12:48;66.10;;;31.90;;
41623;SDS011;27319;50.306;18.926;2022-12-10T00:15:50;43.92;;;25.40;;
41623;SDS011;27319;50.306;18.926;2022-12-10T00:19:50;43.88;;;23.52;;
41623;SDS011;27319;50.306;18.926;2022-12-10T00:22:51;69.25;;;30.52;;
41623;SDS011;27319;50.306;18.926;2022-12-10T00:25:52;50.33;;;26.02;;
41623;SDS011;27319;50.306;18.926;2022-12-10T00:28:53;35.88;;;21.73;;
41623;SDS011;27319;50.306;18.926;2022-12-10T00:31:56;43.22;;;23.23;;
41623;SDS011;27319;50.306;18.926;2022-12-10T00:34:56;62.25;;;31.27;;
41623;SDS011;27319;50.306;18.926;2022-12-10T00:37:57;47.63;;;27.08;;
41623;SDS011;27319;50.306;18.926;2022-12-10T00:40:58;54.53;;;28.17;;
41623;SDS011;27319;50.306;18.926;2022-12-10T00:43:59;51.65;;;25.60;;
41623;SDS011;27319;50.306;18.926;2022-12-10T00:47:00;52.78;;;26.98;;
41623;SDS011;27319;50.306;18.926;2022-12-10T00:50:02;49.42;;;26.95;;
41623;SDS011;27319;50.306;18.926;2022-12-10T00:53:03;36.60;;;20.90;;
41623;SDS011;27319;50.306;18.926;2022-12-10T00:56:04;56.80;;;28.90;;
41623;SDS011;27319;50.306;18.926;2022-12-10T00:59:05;40.40;;;23.05;;
41623;SDS011;27319;50.306;18.926;2022-12-10T01:02:06;32.80;;;21.10;;
41623;SDS011;27319;50.306;18.926;2022-12-10T01:05:07;38.25;;;22.33;;
41623;SDS011;27319;50.306;18.926;2022-12-10T01:08:08;32.63;;;20.13;;
41623;SDS011;27319;50.306;18.926;2022-12-10T01:11:10;36.58;;;20.73;;
41623;SDS011;27319;50.306;18.926;2022-12-10T01:14:14;36.92;;;21.17;;
41623;SDS011;27319;50.306;18.926;2022-12-10T01:17:17;41.90;;;23.45;;
41623;SDS011;27319;50.306;18.926;2022-12-10T01:20:19;33.53;;;21.45;;
41623;SDS011;27319;50.306;18.926;2022-12-10T01:23:20;36.72;;;21.83;;
41623;SDS011;27319;50.306;18.926;2022-12-10T01:26:25;33.50;;;20.73;;
41623;SDS011;27319;50.306;18.926;2022-12-10T01:29:28;41.03;;;22.98;;
41623;SDS011;27319;50.306;18.926;2022-12-10T01:32:29;37.65;;;21.50;;
41623;SDS011;27319;50.306;18.926;2022-12-10T01:35:30;36.67;;;19.92;;
41623;SDS011;27319;50.306;18.926;2022-12-10T01:38:31;49.22;;;26.40;;
41623;SDS011;27319;50.306;18.926;2022-12-10T01:41:36;86.03;;;41.00;;
41623;SDS011;27319;50.306;18.926;2022-12-10T01:47:47;49.45;;;25.52;;
41623;SDS011;27319;50.306;18.926;2022-12-10T01:50:48;36.65;;;19.98;;
41623;SDS011;27319;50.306;18.926;2022-12-10T01:53:49;28.80;;;18.48;;
41623;SDS011;27319;50.306;18.926;2022-12-10T01:56:53;32.00;;;18.30;;
41623;SDS011;27319;50.306;18.926;2022-12-10T02:00:00;27.77;;;18.25;;
41623;SDS011;27319;50.306;18.926;2022-12-10T02:03:09;26.15;;;16.42;;
41623;SDS011;27319;50.306;18.926;2022-12-10T02:12:48;34.58;;;18.85;;
41623;SDS011;27319;50.306;18.926;2022-12-10T02:16:16;70.82;;;32.75;;
41623;SDS011;27319;50.306;18.926;2022-12-10T02:19:41;45.13;;;24.60;;
41623;SDS011;27319;50.306;18.926;2022-12-10T02:23:12;53.22;;;27.15;;
41623;SDS011;27319;50.306;18.926;2022-12-10T02:26:42;32.28;;;19.80;;
41623;SDS011;27319;50.306;18.926;2022-12-10T02:29:53;30.27;;;19.17;;
41623;SDS011;27319;50.306;18.926;2022-12-10T02:32:55;24.67;;;16.77;;
41623;SDS011;27319;50.306;18.926;2022-12-10T02:35:59;23.48;;;16.05;;
41623;SDS011;27319;50.306;18.926;2022-12-10T02:39:02;25.10;;;16.88;;
41623;SDS011;27319;50.306;18.926;2022-12-10T02:42:06;21.90;;;15.48;;
41623;SDS011;27319;50.306;18.926;2022-12-10T02:45:09;22.65;;;14.93;;
41623;SDS011;27319;50.306;18.926;2022-12-10T02:48:11;25.58;;;16.67;;
41623;SDS011;27319;50.306;18.926;2022-12-10T02:51:14;23.20;;;16.02;;
41623;SDS011;27319;50.306;18.926;2022-12-10T03:01:06;22.95;;;15.10;;
41623;SDS011;27319;50.306;18.926;2022-12-10T03:04:39;22.98;;;14.73;;
41623;SDS011;27319;50.306;18.926;2022-12-10T03:07:51;23.70;;;16.00;;
41623;SDS011;27319;50.306;18.926;2022-12-10T03:11:15;19.92;;;14.27;;
41623;SDS011;27319;50.306;18.926;2022-12-10T03:14:22;23.83;;;15.85;;
41623;SDS011;27319;50.306;18.926;2022-12-10T03:17:28;24.75;;;15.75;;
41623;SDS011;27319;50.306;18.926;2022-12-10T03:20:32;24.67;;;15.70;;
41623;SDS011;27319;50.306;18.926;2022-12-10T03:23:37;23.48;;;15.65;;
41623;SDS011;27319;50.306;18.926;2022-12-10T03:26:41;25.83;;;15.68;;
41623;SDS011;27319;50.306;18.926;2022-12-10T03:29:46;23.13;;;15.60;;
41623;SDS011;27319;50.306;18.926;2022-12-10T03:32:50;25.05;;;16.73;;
41623;SDS011;27319;50.306;18.926;2022-12-10T03:35:52;21.45;;;15.00;;
41623;SDS011;27319;50.306;18.926;2022-12-10T03:38:53;24.08;;;15.93;;
41623;SDS011;27319;50.306;18.926;2022-12-10T03:41:54;25.48;;;16.63;;
41623;SDS011;27319;50.306;18.926;2022-12-10T03:44:55;24.02;;;16.73;;
41623;SDS011;27319;50.306;18.926;2022-12-10T03:47:56;27.90;;;17.65;;
41623;SDS011;27319;50.306;18.926;2022-12-10T03:50:57;25.08;;;15.98;;
41623;SDS011;27319;50.306;18.926;2022-12-10T03:53:57;25.05;;;16.15;;
41623;SDS011;27319;50.306;18.926;2022-12-10T03:57:58;23.00;;;15.50;;
41623;SDS011;27319;50.306;18.926;2022-12-10T04:00:59;27.42;;;16.52;;
41623;SDS011;27319;50.306;18.926;2022-12-10T04:04:00;23.77;;;15.95;;
41623;SDS011;27319;50.306;18.926;2022-12-10T04:07:02;27.60;;;17.52;;
41623;SDS011;27319;50.306;18.926;2022-12-10T04:10:03;26.70;;;17.45;;
41623;SDS011;27319;50.306;18.926;2022-12-10T04:13:05;26.13;;;17.42;;
41623;SDS011;27319;50.306;18.926;2022-12-10T04:16:24;30.48;;;19.40;;
41623;SDS011;27319;50.306;18.926;2022-12-10T04:19:29;30.67;;;19.67;;
41623;SDS011;27319;50.306;18.926;2022-12-10T04:22:30;34.90;;;21.10;;
41623;SDS011;27319;50.306;18.926;2022-12-10T04:25:50;36.22;;;21.42;;
41623;SDS011;27319;50.306;18.926;2022-12-10T04:29:09;32.17;;;21.05;;
41623;SDS011;27319;50.306;18.926;2022-12-10T04:32:10;32.90;;;20.35;;
41623;SDS011;27319;50.306;18.926;2022-12-10T04:35:11;32.25;;;21.20;;
41623;SDS011;27319;50.306;18.926;2022-12-10T04:38:12;37.00;;;22.05;;
41623;SDS011;27319;50.306;18.926;2022-12-10T04:41:13;34.58;;;21.23;;
41623;SDS011;27319;50.306;18.926;2022-12-10T04:44:15;32.58;;;20.63;;
41623;SDS011;27319;50.306;18.926;2022-12-10T04:47:17;29.55;;;20.40;;
41623;SDS011;27319;50.306;18.926;2022-12-10T04:50:18;32.03;;;20.42;;
41623;SDS011;27319;50.306;18.926;2022-12-10T04:53:19;29.58;;;18.67;;
41623;SDS011;27319;50.306;18.926;2022-12-10T04:56:20;33.75;;;20.77;;
41623;SDS011;27319;50.306;18.926;2022-12-10T04:59:21;30.58;;;20.73;;
41623;SDS011;27319;50.306;18.926;2022-12-10T05:02:22;32.75;;;21.95;;
41623;SDS011;27319;50.306;18.926;2022-12-10T05:05:22;31.05;;;20.15;;
41623;SDS011;27319;50.306;18.926;2022-12-10T05:08:23;33.13;;;19.95;;
41623;SDS011;27319;50.306;18.926;2022-12-10T05:11:25;33.17;;;21.50;;
41623;SDS011;27319;50.306;18.926;2022-12-10T05:14:28;35.47;;;22.40;;
41623;SDS011;27319;50.306;18.926;2022-12-10T05:17:29;37.47;;;21.67;;
41623;SDS011;27319;50.306;18.926;2022-12-10T05:20:30;34.05;;;20.92;;
41623;SDS011;27319;50.306;18.926;2022-12-10T05:23:31;36.90;;;21.42;;
41623;SDS011;27319;50.306;18.926;2022-12-10T05:26:33;38.03;;;22.33;;
41623;SDS011;27319;50.306;18.926;2022-12-10T05:29:34;32.58;;;21.35;;
41623;SDS011;27319;50.306;18.926;2022-12-10T05:32:35;34.17;;;20.48;;
41623;SDS011;27319;50.306;18.926;2022-12-10T05:35:36;32.05;;;20.05;;
41623;SDS011;27319;50.306;18.926;2022-12-10T05:38:37;35.20;;;22.38;;
41623;SDS011;27319;50.306;18.926;2022-12-10T05:41:39;37.65;;;21.80;;
41623;SDS011;27319;50.306;18.926;2022-12-10T05:44:40;33.83;;;21.48;;
41623;SDS011;27319;50.306;18.926;2022-12-10T05:47:41;37.47;;;22.30;;
41623;SDS011;27319;50.306;18.926;2022-12-10T05:50:42;33.72;;;21.65;;
41623;SDS011;27319;50.306;18.926;2022-12-10T05:53:43;34.00;;;20.38;;
41623;SDS011;27319;50.306;18.926;2022-12-10T05:56:45;36.38;;;22.58;;
41623;SDS011;27319;50.306;18.926;2022-12-10T06:00:41;32.15;;;20.42;;
41623;SDS011;27319;50.306;18.926;2022-12-10T06:03:42;36.70;;;22.40;;
41623;SDS011;27319;50.306;18.926;2022-12-10T06:06:43;37.80;;;21.60;;
41623;SDS011;27319;50.306;18.926;2022-12-10T06:09:44;37.42;;;22.42;;
41623;SDS011;27319;50.306;18.926;2022-12-10T06:12:45;37.80;;;22.65;;
41623;SDS011;27319;50.306;18.926;2022-12-10T06:15:46;35.70;;;22.38;;
41623;SDS011;27319;50.306;18.926;2022-12-10T06:18:47;35.85;;;21.60;;
41623;SDS011;27319;50.306;18.926;2022-12-10T06:21:47;34.95;;;21.83;;
41623;SDS011;27319;50.306;18.926;2022-12-10T06:24:48;41.38;;;24.58;;
41623;SDS011;27319;50.306;18.926;2022-12-10T06:27:49;40.40;;;23.20;;
41623;SDS011;27319;50.306;18.926;2022-12-10T06:30:50;40.60;;;23.90;;
41623;SDS011;27319;50.306;18.926;2022-12-10T06:33:51;42.58;;;23.13;;
41623;SDS011;27319;50.306;18.926;2022-12-10T06:36:53;41.03;;;24.13;;
41623;SDS011;27319;50.306;18.926;2022-12-10T06:39:54;41.22;;;22.88;;
41623;SDS011;27319;50.306;18.926;2022-12-10T06:42:55;58.53;;;30.13;;
41623;SDS011;27319;50.306;18.926;2022-12-10T06:45:55;54.90;;;28.17;;
41623;SDS011;27319;50.306;18.926;2022-12-10T06:48:56;47.10;;;25.02;;
41623;SDS011;27319;50.306;18.926;2022-12-10T06:52:57;45.45;;;26.13;;
41623;SDS011;27319;50.306;18.926;2022-12-10T06:55:59;53.60;;;30.13;;
41623;SDS011;27319;50.306;18.926;2022-12-10T06:59:03;57.92;;;30.73;;
41623;SDS011;27319;50.306;18.926;2022-12-10T07:02:07;76.68;;;42.30;;
41623;SDS011;27319;50.306;18.926;2022-12-10T07:05:09;65.07;;;31.70;;
41623;SDS011;27319;50.306;18.926;2022-12-10T07:08:10;58.45;;;31.50;;
41623;SDS011;27319;50.306;18.926;2022-12-10T07:11:12;65.40;;;35.33;;
41623;SDS011;27319;50.306;18.926;2022-12-10T07:14:16;62.85;;;32.17;;
41623;SDS011;27319;50.306;18.926;2022-12-10T07:17:17;63.70;;;33.72;;
41623;SDS011;27319;50.306;18.926;2022-12-10T07:20:18;71.60;;;40.53;;
41623;SDS011;27319;50.306;18.926;2022-12-10T07:23:19;60.88;;;32.03;;
41623;SDS011;27319;50.306;18.926;2022-12-10T07:26:21;80.10;;;38.22;;
41623;SDS011;27319;50.306;18.926;2022-12-10T07:29:22;58.75;;;30.45;;
41623;SDS011;27319;50.306;18.926;2022-12-10T07:32:23;48.90;;;25.83;;
41623;SDS011;27319;50.306;18.926;2022-12-10T07:35:24;69.65;;;31.00;;
41623;SDS011;27319;50.306;18.926;2022-12-10T07:38:25;72.63;;;35.38;;
41623;SDS011;27319;50.306;18.926;2022-12-10T07:41:26;56.45;;;30.67;;
41623;SDS011;27319;50.306;18.926;2022-12-10T07:44:27;56.80;;;28.52;;
41623;SDS011;27319;50.306;18.926;2022-12-10T07:47:28;64.80;;;32.83;;
41623;SDS011;27319;50.306;18.926;2022-12-10T07:50:29;66.28;;;32.65;;
41623;SDS011;27319;50.306;18.926;2022-12-10T07:53:30;52.55;;;26.83;;
41623;SDS011;27319;50.306;18.926;2022-12-10T07:56:32;57.42;;;29.13;;
41623;SDS011;27319;50.306;18.926;2022-12-10T07:59:32;63.53;;;31.25;;
41623;SDS011;27319;50.306;18.926;2022-12-10T08:02:33;75.63;;;38.47;;
41623;SDS011;27319;50.306;18.926;2022-12-10T08:05:35;74.88;;;35.30;;
41623;SDS011;27319;50.306;18.926;2022-12-10T08:08:36;77.40;;;38.53;;
41623;SDS011;27319;50.306;18.926;2022-12-10T08:11:38;71.38;;;37.85;;
41623;SDS011;27319;50.306;18.926;2022-12-10T08:14:39;69.45;;;36.08;;
41623;SDS011;27319;50.306;18.926;2022-12-10T08:17:39;71.78;;;36.50;;
41623;SDS011;27319;50.306;18.926;2022-12-10T08:20:40;67.50;;;35.22;;
41623;SDS011;27319;50.306;18.926;2022-12-10T08:23:41;90.03;;;40.42;;
41623;SDS011;27319;50.306;18.926;2022-12-10T08:26:43;86.28;;;36.67;;
41623;SDS011;27319;50.306;18.926;2022-12-10T08:29:44;93.20;;;43.63;;
41623;SDS011;27319;50.306;18.926;2022-12-10T08:32:45;78.60;;;36.40;;
41623;SDS011;27319;50.306;18.926;2022-12-10T08:35:46;77.45;;;33.30;;
41623;SDS011;27319;50.306;18.926;2022-12-10T08:38:47;83.97;;;36.50;;
41623;SDS011;27319;50.306;18.926;2022-12-10T08:41:47;90.28;;;41.13;;
41623;SDS011;27319;50.306;18.926;2022-12-10T08:44:48;82.22;;;34.95;;
41623;SDS011;27319;50.306;18.926;2022-12-10T08:47:51;77.75;;;36.50;;
41623;SDS011;27319;50.306;18.926;2022-12-10T08:51:51;67.43;;;29.92;;
41623;SDS011;27319;50.306;18.926;2022-12-10T08:55:52;67.43;;;33.25;;
41623;SDS011;27319;50.306;18.926;2022-12-10T08:59:53;78.25;;;33.97;;
41623;SDS011;27319;50.306;18.926;2022-12-10T09:03:53;62.97;;;32.42;;
41623;SDS011;27319;50.306;18.926;2022-12-10T09:07:54;70.97;;;33.60;;
41623;SDS011;27319;50.306;18.926;2022-12-10T09:11:55;69.70;;;33.47;;
41623;SDS011;27319;50.306;18.926;2022-12-10T09:14:56;106.10;;;46.67;;
41623;SDS011;27319;50.306;18.926;2022-12-10T09:17:56;88.70;;;41.15;;
41623;SDS011;27319;50.306;18.926;2022-12-10T09:20:57;80.53;;;36.90;;
41623;SDS011;27319;50.306;18.926;2022-12-10T09:23:58;58.42;;;28.20;;
41623;SDS011;27319;50.306;18.926;2022-12-10T09:27:00;65.60;;;30.70;;
41623;SDS011;27319;50.306;18.926;2022-12-10T09:30:03;61.72;;;30.15;;
41623;SDS011;27319;50.306;18.926;2022-12-10T09:33:05;68.15;;;34.58;;
41623;SDS011;27319;50.306;18.926;2022-12-10T09:36:06;64.78;;;29.48;;
41623;SDS011;27319;50.306;18.926;2022-12-10T09:39:09;59.80;;;29.90;;
41623;SDS011;27319;50.306;18.926;2022-12-10T09:45:26;60.53;;;28.45;;
41623;SDS011;27319;50.306;18.926;2022-12-10T09:48:45;60.25;;;30.67;;
41623;SDS011;27319;50.306;18.926;2022-12-10T09:52:10;64.50;;;31.60;;
41623;SDS011;27319;50.306;18.926;2022-12-10T09:55:18;63.50;;;31.73;;
41623;SDS011;27319;50.306;18.926;2022-12-10T09:58:26;63.75;;;31.95;;
41623;SDS011;27319;50.306;18.926;2022-12-10T10:01:28;67.60;;;32.20;;
41623;SDS011;27319;50.306;18.926;2022-12-10T10:04:31;58.60;;;28.05;;
41623;SDS011;27319;50.306;18.926;2022-12-10T10:07:33;61.92;;;30.05;;
41623;SDS011;27319;50.306;18.926;2022-12-10T10:10:55;59.40;;;28.45;;
41623;SDS011;27319;50.306;18.926;2022-12-10T10:17:07;63.53;;;28.58;;
41623;SDS011;27319;50.306;18.926;2022-12-10T10:20:14;52.92;;;26.77;;
41623;SDS011;27319;50.306;18.926;2022-12-10T10:23:16;65.82;;;31.55;;
41623;SDS011;27319;50.306;18.926;2022-12-10T10:26:17;64.85;;;30.23;;
41623;SDS011;27319;50.306;18.926;2022-12-10T10:29:18;58.63;;;28.55;;
41623;SDS011;27319;50.306;18.926;2022-12-10T10:32:22;58.00;;;27.08;;
41623;SDS011;27319;50.306;18.926;2022-12-10T10:35:33;63.17;;;26.92;;
41623;SDS011;27319;50.306;18.926;2022-12-10T10:39:35;66.50;;;28.35;;
41623;SDS011;27319;50.306;18.926;2022-12-10T10:43:40;59.58;;;28.45;;
41623;SDS011;27319;50.306;18.926;2022-12-10T10:47:39;59.05;;;27.20;;
41623;SDS011;27319;50.306;18.926;2022-12-10T10:51:25;56.88;;;27.50;;
41623;SDS011;27319;50.306;18.926;2022-12-10T10:54:45;66.18;;;31.13;;
41623;SDS011;27319;50.306;18.926;2022-12-10T10:58:13;65.25;;;29.02;;
41623;SDS011;27319;50.306;18.926;2022-12-10T11:01:17;62.92;;;31.63;;
41623;SDS011;27319;50.306;18.926;2022-12-10T11:05:33;68.28;;;31.35;;
41623;SDS011;27319;50.306;18.926;2022-12-10T11:08:35;62.90;;;30.30;;
41623;SDS011;27319;50.306;18.926;2022-12-10T11:11:40;60.25;;;29.02;;
41623;SDS011;27319;50.306;18.926;2022-12-10T11:14:43;61.97;;;31.40;;
41623;SDS011;27319;50.306;18.926;2022-12-10T11:17:47;56.78;;;28.48;;
41623;SDS011;27319;50.306;18.926;2022-12-10T11:20:56;64.57;;;30.90;;
41623;SDS011;27319;50.306;18.926;2022-12-10T11:24:05;66.22;;;32.60;;
41623;SDS011;27319;50.306;18.926;2022-12-10T11:27:13;65.05;;;32.38;;
41623;SDS011;27319;50.306;18.926;2022-12-10T11:30:25;64.28;;;31.40;;
41623;SDS011;27319;50.306;18.926;2022-12-10T11:40:35;66.70;;;34.05;;
41623;SDS011;27319;50.306;18.926;2022-12-10T11:54:42;72.20;;;35.22;;
41623;SDS011;27319;50.306;18.926;2022-12-10T12:05:27;74.60;;;31.85;;
41623;SDS011;27319;50.306;18.926;2022-12-10T12:15:22;71.40;;;32.22;;
41623;SDS011;27319;50.306;18.926;2022-12-10T12:21:52;80.43;;;34.75;;
41623;SDS011;27319;50.306;18.926;2022-12-10T12:25:20;90.18;;;38.85;;
41623;SDS011;27319;50.306;18.926;2022-12-10T12:31:37;81.85;;;35.88;;
41623;SDS011;27319;50.306;18.926;2022-12-10T12:37:58;81.07;;;34.33;;
41623;SDS011;27319;50.306;18.926;2022-12-10T12:41:29;77.63;;;32.10;;
41623;SDS011;27319;50.306;18.926;2022-12-10T12:51:34;80.00;;;34.17;;
41623;SDS011;27319;50.306;18.926;2022-12-10T12:55:36;72.60;;;33.03;;
41623;SDS011;27319;50.306;18.926;2022-12-10T13:02:58;77.85;;;33.30;;
41623;SDS011;27319;50.306;18.926;2022-12-10T13:06:38;62.63;;;30.33;;
41623;SDS011;27319;50.306;18.926;2022-12-10T13:20:41;122.78;;;57.03;;
41623;SDS011;27319;50.306;18.926;2022-12-10T13:23:52;96.05;;;42.22;;
41623;SDS011;27319;50.306;18.926;2022-12-10T13:27:56;85.65;;;37.67;;
41623;SDS011;27319;50.306;18.926;2022-12-10T13:31:57;82.45;;;34.70;;
41623;SDS011;27319;50.306;18.926;2022-12-10T13:35:58;99.78;;;46.50;;
41623;SDS011;27319;50.306;18.926;2022-12-10T13:40:02;85.43;;;35.50;;
41623;SDS011;27319;50.306;18.926;2022-12-10T13:43:59;98.70;;;50.97;;
41623;SDS011;27319;50.306;18.926;2022-12-10T13:47:49;90.18;;;44.60;;
41623;SDS011;27319;50.306;18.926;2022-12-10T13:51:55;91.55;;;41.38;;
41623;SDS011;27319;50.306;18.926;2022-12-10T14:06:06;79.05;;;35.10;;
41623;SDS011;27319;50.306;18.926;2022-12-10T14:10:03;86.43;;;38.17;;
41623;SDS011;27319;50.306;18.926;2022-12-10T14:14:05;81.85;;;37.05;;
41623;SDS011;27319;50.306;18.926;2022-12-10T14:18:13;94.10;;;40.40;;
41623;SDS011;27319;50.306;18.926;2022-12-10T14:21:18;94.25;;;40.80;;
41623;SDS011;27319;50.306;18.926;2022-12-10T14:25:20;80.35;;;35.28;;
41623;SDS011;27319;50.306;18.926;2022-12-10T14:29:22;86.15;;;35.88;;
41623;SDS011;27319;50.306;18.926;2022-12-10T14:33:28;85.40;;;33.92;;
41623;SDS011;27319;50.306;18.926;2022-12-10T14:37:30;73.78;;;32.42;;
41623;SDS011;27319;50.306;18.926;2022-12-10T14:41:29;77.53;;;30.40;;
41623;SDS011;27319;50.306;18.926;2022-12-10T14:45:31;81.25;;;35.97;;
41623;SDS011;27319;50.306;18.926;2022-12-10T14:48:51;81.90;;;35.78;;
41623;SDS011;27319;50.306;18.926;2022-12-10T14:51:55;78.00;;;34.15;;
41623;SDS011;27319;50.306;18.926;2022-12-10T14:54:56;109.43;;;46.40;;
41623;SDS011;27319;50.306;18.926;2022-12-10T14:57:58;89.38;;;40.40;;
41623;SDS011;27319;50.306;18.926;2022-12-10T15:01:03;124.25;;;52.75;;
41623;SDS011;27319;50.306;18.926;2022-12-10T15:04:06;260.55;;;105.15;;
41623;SDS011;27319;50.306;18.926;2022-12-10T15:07:14;145.20;;;56.08;;
41623;SDS011;27319;50.306;18.926;2022-12-10T15:10:24;152.73;;;57.80;;
41623;SDS011;27319;50.306;18.926;2022-12-10T15:16:41;98.05;;;40.47;;
41623;SDS011;27319;50.306;18.926;2022-12-10T15:19:44;98.28;;;42.05;;
41623;SDS011;27319;50.306;18.926;2022-12-10T15:22:51;97.78;;;42.58;;
41623;SDS011;27319;50.306;18.926;2022-12-10T15:32:47;105.25;;;43.05;;
41623;SDS011;27319;50.306;18.926;2022-12-10T15:36:48;99.00;;;41.50;;
41623;SDS011;27319;50.306;18.926;2022-12-10T15:40:47;130.18;;;52.90;;
41623;SDS011;27319;50.306;18.926;2022-12-10T15:48:29;93.13;;;42.63;;
41623;SDS011;27319;50.306;18.926;2022-12-10T15:51:30;82.43;;;35.45;;
41623;SDS011;27319;50.306;18.926;2022-12-10T15:54:32;113.65;;;52.00;;
41623;SDS011;27319;50.306;18.926;2022-12-10T15:58:32;75.90;;;35.58;;
41623;SDS011;27319;50.306;18.926;2022-12-10T16:02:37;79.53;;;38.80;;
41623;SDS011;27319;50.306;18.926;2022-12-10T16:06:37;94.95;;;44.30;;
41623;SDS011;27319;50.306;18.926;2022-12-10T16:10:37;101.50;;;46.47;;
41623;SDS011;27319;50.306;18.926;2022-12-10T16:13:39;82.60;;;37.85;;
41623;SDS011;27319;50.306;18.926;2022-12-10T16:16:48;78.55;;;39.00;;
41623;SDS011;27319;50.306;18.926;2022-12-10T16:19:49;86.32;;;38.05;;
41623;SDS011;27319;50.306;18.926;2022-12-10T16:22:49;110.15;;;49.70;;
41623;SDS011;27319;50.306;18.926;2022-12-10T16:25:51;73.75;;;34.25;;
41623;SDS011;27319;50.306;18.926;2022-12-10T16:28:51;108.53;;;48.33;;
41623;SDS011;27319;50.306;18.926;2022-12-10T16:31:53;94.07;;;42.45;;
41623;SDS011;27319;50.306;18.926;2022-12-10T16:34:53;79.30;;;37.42;;
41623;SDS011;27319;50.306;18.926;2022-12-10T16:38:54;107.97;;;48.70;;
41623;SDS011;27319;50.306;18.926;2022-12-10T16:41:55;76.05;;;37.65;;
41623;SDS011;27319;50.306;18.926;2022-12-10T16:44:56;110.88;;;46.10;;
41623;SDS011;27319;50.306;18.926;2022-12-10T16:47:57;85.47;;;39.10;;
41623;SDS011;27319;50.306;18.926;2022-12-10T16:50:58;126.40;;;51.28;;
41623;SDS011;27319;50.306;18.926;2022-12-10T16:54:00;118.03;;;48.33;;
41623;SDS011;27319;50.306;18.926;2022-12-10T16:57:01;124.45;;;52.22;;
41623;SDS011;27319;50.306;18.926;2022-12-10T17:00:04;125.47;;;55.38;;
41623;SDS011;27319;50.306;18.926;2022-12-10T17:03:06;116.72;;;49.53;;
41623;SDS011;27319;50.306;18.926;2022-12-10T17:07:07;128.90;;;57.47;;
41623;SDS011;27319;50.306;18.926;2022-12-10T17:11:28;104.03;;;40.83;;
41623;SDS011;27319;50.306;18.926;2022-12-10T17:14:45;106.38;;;43.70;;
41623;SDS011;27319;50.306;18.926;2022-12-10T17:17:46;90.30;;;40.33;;
41623;SDS011;27319;50.306;18.926;2022-12-10T17:20:48;95.38;;;40.20;;
41623;SDS011;27319;50.306;18.926;2022-12-10T17:23:49;114.45;;;48.58;;
41623;SDS011;27319;50.306;18.926;2022-12-10T17:26:50;179.90;;;65.95;;
41623;SDS011;27319;50.306;18.926;2022-12-10T17:29:52;233.80;;;86.35;;
41623;SDS011;27319;50.306;18.926;2022-12-10T17:32:53;125.38;;;51.92;;
41623;SDS011;27319;50.306;18.926;2022-12-10T17:35:54;104.32;;;43.33;;
41623;SDS011;27319;50.306;18.926;2022-12-10T17:38:55;117.43;;;49.00;;
41623;SDS011;27319;50.306;18.926;2022-12-10T17:41:56;80.55;;;36.25;;
41623;SDS011;27319;50.306;18.926;2022-12-10T17:44:57;193.05;;;78.60;;
41623;SDS011;27319;50.306;18.926;2022-12-10T17:48:38;111.55;;;46.50;;
41623;SDS011;27319;50.306;18.926;2022-12-10T17:51:40;88.70;;;38.47;;
41623;SDS011;27319;50.306;18.926;2022-12-10T17:54:41;132.88;;;56.00;;
41623;SDS011;27319;50.306;18.926;2022-12-10T17:57:42;105.05;;;40.63;;
41623;SDS011;27319;50.306;18.926;2022-12-10T18:00:59;128.85;;;53.25;;
41623;SDS011;27319;50.306;18.926;2022-12-10T18:04:00;102.07;;;43.40;;
41623;SDS011;27319;50.306;18.926;2022-12-10T18:07:01;132.93;;;55.85;;
41623;SDS011;27319;50.306;18.926;2022-12-10T18:10:03;93.95;;;43.63;;
41623;SDS011;27319;50.306;18.926;2022-12-10T18:13:07;79.90;;;34.30;;
41623;SDS011;27319;50.306;18.926;2022-12-10T18:16:12;131.48;;;55.53;;
41623;SDS011;27319;50.306;18.926;2022-12-10T18:19:14;96.78;;;43.30;;
41623;SDS011;27319;50.306;18.926;2022-12-10T18:22:15;99.65;;;41.78;;
41623;SDS011;27319;50.306;18.926;2022-12-10T18:25:17;59.13;;;26.85;;
41623;SDS011;27319;50.306;18.926;2022-12-10T18:31:26;88.88;;;35.85;;
41623;SDS011;27319;50.306;18.926;2022-12-10T18:34:29;83.75;;;36.88;;
41623;SDS011;27319;50.306;18.926;2022-12-10T18:38:25;109.00;;;39.72;;
41623;SDS011;27319;50.306;18.926;2022-12-10T18:41:26;99.75;;;42.63;;
41623;SDS011;27319;50.306;18.926;2022-12-10T18:44:28;80.75;;;35.08;;
41623;SDS011;27319;50.306;18.926;2022-12-10T18:48:28;81.38;;;34.83;;
41623;SDS011;27319;50.306;18.926;2022-12-10T18:51:29;89.82;;;34.92;;
41623;SDS011;27319;50.306;18.926;2022-12-10T18:54:31;81.55;;;32.03;;
41623;SDS011;27319;50.306;18.926;2022-12-10T18:57:32;92.78;;;34.65;;
41623;SDS011;27319;50.306;18.926;2022-12-10T19:00:33;81.05;;;33.85;;
41623;SDS011;27319;50.306;18.926;2022-12-10T19:03:35;84.22;;;34.50;;
41623;SDS011;27319;50.306;18.926;2022-12-10T19:06:36;90.35;;;38.50;;
41623;SDS011;27319;50.306;18.926;2022-12-10T19:09:38;88.43;;;34.65;;
41623;SDS011;27319;50.306;18.926;2022-12-10T19:13:39;95.25;;;40.03;;
41623;SDS011;27319;50.306;18.926;2022-12-10T19:17:39;116.78;;;51.95;;
41623;SDS011;27319;50.306;18.926;2022-12-10T19:21:40;111.15;;;48.65;;
41623;SDS011;27319;50.306;18.926;2022-12-10T19:25:44;91.97;;;36.50;;
41623;SDS011;27319;50.306;18.926;2022-12-10T19:28:53;114.30;;;49.22;;
41623;SDS011;27319;50.306;18.926;2022-12-10T19:32:53;94.25;;;38.92;;
41623;SDS011;27319;50.306;18.926;2022-12-10T19:35:54;81.40;;;34.97;;
41623;SDS011;27319;50.306;18.926;2022-12-10T19:39:55;79.32;;;33.03;;
41623;SDS011;27319;50.306;18.926;2022-12-10T19:43:56;95.22;;;38.80;;
41623;SDS011;27319;50.306;18.926;2022-12-10T19:47:57;87.68;;;39.47;;
41623;SDS011;27319;50.306;18.926;2022-12-10T19:51:57;78.68;;;34.50;;
41623;SDS011;27319;50.306;18.926;2022-12-10T19:55:58;81.68;;;37.63;;
41623;SDS011;27319;50.306;18.926;2022-12-10T19:59:39;83.53;;;36.40;;
41623;SDS011;27319;50.306;18.926;2022-12-10T20:03:39;87.15;;;35.55;;
41623;SDS011;27319;50.306;18.926;2022-12-10T20:06:41;82.93;;;37.10;;
41623;SDS011;27319;50.306;18.926;2022-12-10T20:10:41;83.97;;;38.70;;
41623;SDS011;27319;50.306;18.926;2022-12-10T20:13:42;66.45;;;29.50;;
41623;SDS011;27319;50.306;18.926;2022-12-10T20:16:58;63.67;;;29.27;;
41623;SDS011;27319;50.306;18.926;2022-12-10T20:20:59;47.45;;;22.92;;
41623;SDS011;27319;50.306;18.926;2022-12-10T20:24:55;50.25;;;23.83;;
41623;SDS011;27319;50.306;18.926;2022-12-10T20:28:56;42.58;;;20.63;;
41623;SDS011;27319;50.306;18.926;2022-12-10T20:32:59;49.90;;;25.30;;